createdAt,value
2023-03-22T00:00:39.562Z,10.48
2023-03-22T00:03:08.171Z,10.48
2023-03-22T00:05:37.781Z,10.49
2023-03-22T00:08:26.187Z,10.51
2023-03-22T00:10:55.948Z,10.52
2023-03-22T00:13:26.171Z,10.53
2023-03-22T00:15:55.911Z,10.54
2023-03-22T00:18:31.887Z,10.56
2023-03-22T00:21:00.944Z,10.58
2023-03-22T00:23:29.624Z,10.58
2023-03-22T00:25:58.076Z,10.56
2023-03-22T00:28:26.958Z,10.54
2023-03-22T00:31:02.180Z,10.51
2023-03-22T00:33:31.418Z,10.48
2023-03-22T00:36:07.353Z,10.47
2023-03-22T00:38:44.855Z,10.45
2023-03-22T00:41:18.398Z,10.45
2023-03-22T00:43:48.376Z,10.43
2023-03-22T00:46:20.045Z,10.40
2023-03-22T00:48:48.986Z,10.39
2023-03-22T00:51:18.380Z,10.40
2023-03-22T00:53:49.812Z,10.38
2023-03-22T00:56:19.720Z,10.37
2023-03-22T00:58:57.001Z,10.36
2023-03-22T01:01:25.350Z,10.33
2023-03-22T01:03:55.604Z,10.30
2023-03-22T01:06:23.996Z,10.21
2023-03-22T01:08:55.278Z,10.14
2023-03-22T01:11:25.093Z,10.10
2023-03-22T01:13:54.917Z,10.06
2023-03-22T01:16:23.240Z,10.04
2023-03-22T01:18:51.810Z,10.00
2023-03-22T01:21:20.461Z,9.96
2023-03-22T01:23:49.056Z,9.93
2023-03-22T01:26:17.584Z,9.92
2023-03-22T01:28:46.371Z,9.89
2023-03-22T01:31:15.369Z,9.85
2023-03-22T01:33:44.079Z,9.82
2023-03-22T01:36:12.350Z,9.79
2023-03-22T01:38:41.052Z,9.77
2023-03-22T01:41:09.457Z,9.76
2023-03-22T01:43:39.919Z,9.77
2023-03-22T01:46:09.390Z,9.79
2023-03-22T01:48:46.102Z,9.80
2023-03-22T01:51:20.628Z,9.82
2023-03-22T01:54:40.461Z,9.83
2023-03-22T01:57:19.995Z,9.83
2023-03-22T01:59:50.218Z,9.80
2023-03-22T02:02:30.990Z,9.77
2023-03-22T02:05:07.735Z,9.72
2023-03-22T02:07:37.864Z,9.69
2023-03-22T02:10:23.519Z,9.67
2023-03-22T02:13:28.364Z,9.64
2023-03-22T02:16:22.877Z,9.62
2023-03-22T02:19:08.695Z,9.59
2023-03-22T02:21:56.366Z,9.54
2023-03-22T02:24:32.932Z,9.51
2023-03-22T02:27:23.474Z,9.51
2023-03-22T02:29:59.325Z,9.51
2023-03-22T02:32:55.763Z,9.53
2023-03-22T02:35:34.345Z,9.51
2023-03-22T02:38:21.295Z,9.48
2023-03-22T02:41:08.325Z,9.44
2023-03-22T02:43:53.103Z,9.40
2023-03-22T02:46:24.387Z,9.40
2023-03-22T02:48:55.529Z,9.41
2023-03-22T02:51:27.132Z,9.40
2023-03-22T02:54:08.352Z,9.39
2023-03-22T02:57:04.206Z,9.35
2023-03-22T02:59:34.781Z,9.28
2023-03-22T03:02:04.114Z,9.21
2023-03-22T03:04:38.248Z,9.15
2023-03-22T03:07:09.510Z,9.11
2023-03-22T03:09:38.658Z,9.08
2023-03-22T03:12:13.777Z,9.05
2023-03-22T03:14:42.368Z,9.01
2023-03-22T03:17:10.604Z,8.99
2023-03-22T03:20:17.943Z,8.98
2023-03-22T03:23:06.173Z,8.96
2023-03-22T03:26:07.535Z,8.95
2023-03-22T03:28:49.942Z,8.94
2023-03-22T03:31:26.845Z,8.94
2023-03-22T03:34:02.930Z,8.92
2023-03-22T03:36:33.760Z,8.92
2023-03-22T03:39:01.923Z,8.92
2023-03-22T03:41:31.516Z,8.91
2023-03-22T03:43:59.900Z,8.91
2023-03-22T03:46:29.363Z,8.92
2023-03-22T03:48:57.810Z,8.90
2023-03-22T03:51:27.063Z,8.88
2023-03-22T03:53:56.078Z,8.85
2023-03-22T03:56:24.514Z,8.85
2023-03-22T03:58:53.830Z,8.84
2023-03-22T04:01:24.245Z,8.84
2023-03-22T04:04:28.155Z,8.86
2023-03-22T04:07:01.675Z,8.88
2023-03-22T04:09:33.014Z,8.89
2023-03-22T04:12:12.760Z,8.92
2023-03-22T04:14:42.026Z,8.93
2023-03-22T04:17:18.419Z,8.94
2023-03-22T04:19:46.867Z,8.92
2023-03-22T04:22:18.565Z,8.90
2023-03-22T04:24:50.233Z,8.90
2023-03-22T04:27:20.501Z,8.89
2023-03-22T04:29:55.986Z,8.91
2023-03-22T04:32:48.686Z,8.89
2023-03-22T04:35:18.221Z,8.84
2023-03-22T04:37:48.973Z,8.85
2023-03-22T04:40:20.969Z,8.87
2023-03-22T04:42:58.988Z,8.89
2023-03-22T04:45:44.107Z,8.91
2023-03-22T04:48:13.806Z,8.92
2023-03-22T04:50:42.260Z,8.92
2023-03-22T04:53:12.518Z,8.94
2023-03-22T04:55:47.158Z,8.96
2023-03-22T04:58:17.435Z,8.97
2023-03-22T05:00:48.116Z,8.99
2023-03-22T05:03:19.377Z,9.00
2023-03-22T05:05:52.760Z,9.01
2023-03-22T05:08:21.934Z,9.02
2023-03-22T05:10:53.332Z,9.07
2023-03-22T05:13:22.797Z,9.15
2023-03-22T05:15:52.087Z,9.21
2023-03-22T05:18:26.440Z,9.26
2023-03-22T05:20:55.829Z,9.30
2023-03-22T05:23:25.369Z,9.35
2023-03-22T05:25:58.335Z,9.39
2023-03-22T05:28:29.798Z,9.44
2023-03-22T05:31:06.496Z,9.49
2023-03-22T05:33:44.271Z,9.55
2023-03-22T05:36:12.891Z,9.60
2023-03-22T05:38:52.551Z,9.64
2023-03-22T05:41:20.953Z,9.69
2023-03-22T05:43:51.070Z,9.73
2023-03-22T05:46:20.765Z,9.76
2023-03-22T05:49:15.064Z,9.82
2023-03-22T05:51:47.582Z,9.87
2023-03-22T05:54:16.374Z,9.94
2023-03-22T05:56:49.868Z,10.01
2023-03-22T05:59:18.046Z,10.10
2023-03-22T06:01:47.294Z,10.18
2023-03-22T06:04:21.123Z,10.25
2023-03-22T06:07:12.905Z,10.33
2023-03-22T06:09:44.310Z,10.41
2023-03-22T06:12:22.675Z,10.54
2023-03-22T06:14:54.962Z,10.67
2023-03-22T06:17:43.098Z,10.82
2023-03-22T06:20:18.153Z,10.95
2023-03-22T06:22:55.283Z,11.06
2023-03-22T06:25:24.578Z,11.18
2023-03-22T06:27:54.227Z,11.37
2023-03-22T06:30:23.458Z,11.58
2023-03-22T06:33:30.530Z,11.87
2023-03-22T06:36:21.578Z,12.16
2023-03-22T06:39:05.442Z,12.44
2023-03-22T06:41:34.378Z,12.69
2023-03-22T06:44:03.041Z,12.92
2023-03-22T06:46:57.161Z,13.16
2023-03-22T06:49:48.094Z,13.32
2023-03-22T06:52:23.551Z,13.44
2023-03-22T06:54:52.464Z,13.56
2023-03-22T06:57:28.011Z,13.67
2023-03-22T06:59:56.719Z,13.78
2023-03-22T07:02:25.650Z,13.86
2023-03-22T07:05:12.371Z,13.91
2023-03-22T07:07:42.053Z,13.95
2023-03-22T07:10:10.683Z,14.00
2023-03-22T07:12:41.617Z,14.04
2023-03-22T07:15:13.450Z,14.05
2023-03-22T07:18:08.602Z,14.02
2023-03-22T07:20:41.850Z,13.98
2023-03-22T07:23:11.115Z,13.95
2023-03-22T07:25:46.692Z,13.90
2023-03-22T07:28:23.193Z,13.89
2023-03-22T07:31:03.339Z,13.91
2023-03-22T07:33:35.776Z,13.91
2023-03-22T07:36:05.578Z,13.95
2023-03-22T07:38:34.492Z,14.04
2023-03-22T07:41:03.545Z,14.13
2023-03-22T07:43:53.349Z,14.17
2023-03-22T07:46:24.451Z,14.14
2023-03-22T07:49:17.538Z,14.14
2023-03-22T07:52:01.190Z,14.16
2023-03-22T07:54:34.226Z,14.16
2023-03-22T07:57:09.132Z,14.13
2023-03-22T07:59:48.088Z,14.07
2023-03-22T08:02:21.139Z,14.03
2023-03-22T08:04:55.766Z,14.02
2023-03-22T08:07:32.816Z,14.03
2023-03-22T08:10:06.336Z,13.99
2023-03-22T08:12:36.619Z,13.99
2023-03-22T08:15:19.234Z,14.01
2023-03-22T08:17:50.006Z,14.03
2023-03-22T08:20:28.688Z,14.03
2023-03-22T08:23:02.014Z,14.08
2023-03-22T08:25:31.410Z,14.14
2023-03-22T08:28:06.851Z,14.23
2023-03-22T08:30:35.961Z,14.34
2023-03-22T08:33:05.083Z,14.50
2023-03-22T08:35:39.710Z,14.71
2023-03-22T08:38:11.426Z,14.95
2023-03-22T08:40:49.025Z,15.20
2023-03-22T08:43:21.214Z,15.37
2023-03-22T08:45:51.200Z,15.43
2023-03-22T08:48:21.872Z,15.46
2023-03-22T08:51:09.318Z,15.47
2023-03-22T08:54:04.729Z,15.49
2023-03-22T08:56:52.044Z,15.49
2023-03-22T08:59:46.932Z,15.48
2023-03-22T09:02:39.857Z,15.47
2023-03-22T09:05:09.322Z,15.50
2023-03-22T09:07:40.150Z,15.58
2023-03-22T09:10:17.445Z,15.73
2023-03-22T09:12:52.086Z,15.88
2023-03-22T09:15:29.966Z,16.07
2023-03-22T09:18:24.388Z,16.26
2023-03-22T09:20:53.110Z,16.43
2023-03-22T09:23:32.026Z,16.60
2023-03-22T09:26:03.367Z,16.73
2023-03-22T09:28:32.262Z,16.86
2023-03-22T09:31:08.200Z,16.99
2023-03-22T09:33:41.003Z,17.15
2023-03-22T09:36:12.026Z,17.33
2023-03-22T09:38:45.509Z,17.41
2023-03-22T09:41:16.726Z,17.48
2023-03-22T09:44:01.262Z,17.60
2023-03-22T09:46:38.371Z,17.75
2023-03-22T09:49:12.289Z,17.86
2023-03-22T09:51:49.209Z,17.97
2023-03-22T09:54:21.818Z,18.06
2023-03-22T09:57:11.514Z,18.09
2023-03-22T09:59:51.313Z,18.15
2023-03-22T10:02:38.402Z,18.21
2023-03-22T10:05:12.394Z,18.30
2023-03-22T10:08:04.501Z,18.41
2023-03-22T10:10:33.686Z,18.58
2023-03-22T10:13:07.908Z,18.75
2023-03-22T10:15:40.941Z,18.85
2023-03-22T10:18:16.631Z,18.98
2023-03-22T10:21:03.949Z,19.06
2023-03-22T10:23:48.478Z,19.07
2023-03-22T10:26:31.997Z,19.08
2023-03-22T10:29:04.092Z,19.02
2023-03-22T10:31:33.011Z,18.96
2023-03-22T10:34:23.789Z,18.91
2023-03-22T10:36:53.002Z,18.85
2023-03-22T10:39:38.618Z,18.73
2023-03-22T10:42:14.635Z,18.59
2023-03-22T10:45:10.255Z,18.50
2023-03-22T10:47:58.139Z,18.38
2023-03-22T10:50:42.589Z,18.27
2023-03-22T10:53:29.801Z,18.14
2023-03-22T10:55:58.719Z,18.02
2023-03-22T10:58:31.698Z,17.91
2023-03-22T11:01:07.625Z,17.86
2023-03-22T11:03:39.061Z,17.80
2023-03-22T11:06:24.749Z,17.70
2023-03-22T11:08:58.735Z,17.64
2023-03-22T11:11:31.649Z,17.61
2023-03-22T11:14:05.104Z,17.61
2023-03-22T11:17:06.509Z,17.61
2023-03-22T11:19:51.473Z,17.77
2023-03-22T11:22:41.449Z,17.99
2023-03-22T11:25:31.393Z,18.27
2023-03-22T11:28:04.426Z,18.52
2023-03-22T11:30:34.421Z,18.72
2023-03-22T11:33:08.406Z,18.79
2023-03-22T11:35:38.076Z,18.77
2023-03-22T11:38:07.719Z,18.74
2023-03-22T11:40:37.262Z,18.64
2023-03-22T11:43:16.090Z,18.55
2023-03-22T11:45:44.876Z,18.45
2023-03-22T11:48:27.674Z,18.41
2023-03-22T11:51:03.782Z,18.49
2023-03-22T11:53:35.459Z,18.55
2023-03-22T11:56:07.636Z,18.57
2023-03-22T11:59:04.150Z,18.55
2023-03-22T12:01:47.287Z,18.47
2023-03-22T12:04:18.149Z,18.35
2023-03-22T12:06:48.650Z,18.25
2023-03-22T12:09:44.641Z,18.20
2023-03-22T12:12:23.189Z,18.21
2023-03-22T12:14:52.932Z,18.25
2023-03-22T12:17:28.116Z,18.32
2023-03-22T12:20:08.698Z,18.46
2023-03-22T12:22:41.781Z,18.67
2023-03-22T12:25:22.439Z,18.87
2023-03-22T12:27:57.969Z,19.11
2023-03-22T12:30:28.502Z,19.32
2023-03-22T12:33:04.901Z,19.44
2023-03-22T12:35:35.717Z,19.58
2023-03-22T12:38:22.561Z,19.73
2023-03-22T12:40:52.410Z,19.89
2023-03-22T12:43:39.647Z,19.91
2023-03-22T12:46:25.813Z,19.75
2023-03-22T12:49:11.173Z,19.57
2023-03-22T12:51:42.115Z,19.36
2023-03-22T12:54:11.883Z,19.14
2023-03-22T12:56:41.332Z,18.98
2023-03-22T12:59:23.566Z,18.89
2023-03-22T13:02:01.693Z,18.84
2023-03-22T13:04:37.944Z,18.78
2023-03-22T13:07:11.252Z,18.72
2023-03-22T13:09:49.968Z,18.76
2023-03-22T13:12:24.765Z,18.88
2023-03-22T13:15:01.073Z,19.04
2023-03-22T13:17:29.935Z,19.23
2023-03-22T13:20:15.805Z,19.42
2023-03-22T13:22:47.339Z,19.68
2023-03-22T13:25:23.862Z,19.86
2023-03-22T13:27:53.181Z,19.91
2023-03-22T13:30:35.845Z,19.81
2023-03-22T13:33:10.532Z,19.64
2023-03-22T13:35:46.155Z,19.47
2023-03-22T13:38:23.307Z,19.24
2023-03-22T13:40:54.886Z,19.00
2023-03-22T13:43:47.090Z,18.81
2023-03-22T13:46:18.192Z,18.63
2023-03-22T13:48:47.694Z,18.46
2023-03-22T13:51:27.017Z,18.32
2023-03-22T13:54:18.247Z,18.17
2023-03-22T13:56:53.180Z,18.04
2023-03-22T13:59:29.949Z,17.91
2023-03-22T14:02:16.045Z,17.80
2023-03-22T14:04:56.295Z,17.70
2023-03-22T14:07:48.981Z,17.64
2023-03-22T14:10:25.805Z,17.53
2023-03-22T14:12:58.583Z,17.49
2023-03-22T14:15:36.363Z,17.44
2023-03-22T14:18:42.329Z,17.41
2023-03-22T14:21:14.430Z,17.36
